x

Halibut Bank (46146) Wave Buoy

2:00 - Sun 25th Jun 2017 All times are PDT. -7 hours from GMT.

  • Sig Wave height 0.7ft
  • Peak Period 3s
  • Wind
    9mph, 11mph gusts
  • Sea Temp 65°f
  • Air Temp 66°f
  • Sea Pressure 1012.9mb
  • Halibut Bank
  • Halibut Bank

More Historic Weather Station data

Upgrade to MSW Pro to gain access to the past 30 days of data for over 8000 Wavebouys and Weather Stations around the globe.

Join Pro

Comparision Forecast

View Surf forecast
   
dim. 06/25 2:00 0.7ft 3s 9 11 mph 1012.9mb 65f 66f
1:00 1ft 3s 9 11 mph 1013.4mb 65f 66f
12:00 1ft 3s 9 11 mph 1014mb 65f 65f
11:00 1ft 3s 11 11 mph 1014.3mb 64f 64f
10:00 0.7ft 3s 13 13 mph 1014.5mb 64f 64f
9:00 0.7ft 3s 9 11 mph 1014.6mb 64f 64f
8:00 0.3ft 2s 9 9 mph 1014.8mb 64f 64f
7:00 0.7ft 2s 11 11 mph 1014.7mb 64f 64f
6:00 0.3ft 2s 9 11 mph 1014.8mb 64f 65f
5:00 0.3ft 3s 9 11 mph 1014.9mb 64f 65f
4:00 0.3ft 2s 9 11 mph 1014.9mb 64f 65f
3:00 0.3ft 2s 9 11 mph 1015mb 65f 66f
2:00 0.3ft 4s 9 9 mph 1015.1mb 64f 66f
1:00 0.3ft 5s 7 7 mph 1015.2mb 64f 67f
12:00 0.3ft 6s 9 9 mph 1015.3mb 64f 71f
sam. 06/24 11:00 0.3ft 6s 11 11 mph 1015.4mb 65f 70f
10:00 0.3ft 3s 7 9 mph 1015.8mb 65f 68f
9:00 0.3ft 6s 11 11 mph 1015.6mb 65f 69f
8:00 0.7ft 6s 7 7 mph 1016.2mb 65f 68f
7:00 0.3ft 4s 4 4 mph 1016.7mb 65f 69f
6:00 0.3ft 2s 7 9 mph 1017.4mb 65f 68f
5:00 0.7ft 3s 7 7 mph 1018.2mb 65f 67f
4:00 0.3ft 3s 9 9 mph 1019.1mb 64f 66f
3:00 0.7ft 3s 4 4 mph 1019.9mb 64f 65f
2:00 1ft 3s 9 9 mph 1020.4mb 64f 65f
1:00 1ft 3s 11 13 mph 1021.2mb 63f 65f
12:00 1ft 3s 13 16 mph 1021.6mb 62f 64f
11:00 1ft 3s 11 13 mph 1021.9mb 62f 63f
10:00 0.7ft 3s 13 13 mph 1022.1mb 62f 62f
9:00 0.7ft 3s 11 13 mph 1022.2mb 62f 62f
8:00 1ft 3s 9 11 mph 1022.3mb 62f 62f
7:00 1ft 3s 9 9 mph 1022.2mb 61f 62f
6:00 1.3ft 3s 9 11 mph 1021.7mb 61f 62f
5:00 1.3ft 3s 13 16 mph 1021.5mb 62f 62f
4:00 1ft 3s 13 13 mph 1021.4mb 62f 63f
3:00 1ft 3s 9 11 mph 1021.3mb 62f 63f
2:00 0.7ft 2s 11 13 mph 1021.3mb 62f 63f
1:00 0.7ft 3s 9 11 mph 1021.2mb 62f 64f
12:00 1ft 3s 11 13 mph 1020.9mb 62f 65f
ven. 06/23 11:00 1ft 3s 16 18 mph 1020.5mb 62f 67f
10:00 0.7ft 3s 11 13 mph 1020.6mb 62f 66f
9:00 1ft 3s 13 16 mph 1020.5mb 62f 67f
8:00 1.3ft 3s 13 16 mph 1020.7mb 62f 67f
7:00 1.3ft 3s 13 16 mph 1020.9mb 62f 66f
6:00 1.3ft 3s 13 13 mph 1021.4mb 62f 65f
5:00 1.6ft 3s 13 18 mph 1022mb 62f 64f
4:00 1.6ft 3s 16 18 mph 1022.5mb 62f 63f
3:00 1.6ft 3s 18 20 mph 1023mb 61f 62f
2:00 1.6ft 3s 16 18 mph 1023.6mb 61f 62f
1:00 1.6ft 3s 18 20 mph 1024mb 61f 60f
12:00 1.6ft 3s 18 20 mph 1024.3mb 61f 60f
11:00 1.6ft 3s 18 20 mph 1024.7mb 61f 59f
10:00 1.6ft 3s 16 18 mph 1025mb 61f 59f
9:00 1.3ft 3s 16 18 mph 1025.2mb 60f 59f
8:00 1.3ft 3s 18 20 mph 1025.1mb 60f 59f
7:00 1.3ft 3s 16 18 mph 1024.7mb 60f 59f
6:00 1.3ft 3s 13 18 mph 1024.5mb 60f 60f
5:00 1.3ft 3s 16 18 mph 1024.2mb 60f 60f
4:00 1.3ft 3s 13 18 mph 1023.6mb 61f 60f
3:00 0.7ft 2s 11 13 mph 1023.5mb 61f 61f
2:00 0.7ft 2s 11 13 mph 1023.5mb 61f 61f
1:00 0.7ft 2s 13 13 mph 1023.4mb 61f 61f
12:00 1ft 2s 13 16 mph 1023.4mb 61f 62f
jeu. 06/22 11:00 1ft 2s 16 18 mph 1023.5mb 61f 62f
10:00 0.7ft 2s 13 16 mph 1023.4mb 61f 62f
9:00 0.7ft 2s 13 13 mph 1023.2mb 61f 62f
8:00 1ft 2s 13 13 mph 1023.6mb 60f 62f
7:00 0.7ft 2s 11 13 mph 1024mb 61f 62f
6:00 0.7ft 3s 11 13 mph 1024.2mb 61f 63f
5:00 0.7ft 3s 11 11 mph 1024.7mb 62f 61f
4:00 0.7ft 3s 9 11 mph 1025.5mb 62f 60f
3:00 1ft 3s 9 11 mph 1026mb 59f 59f
2:00 1ft 3s 11 11 mph 1026.7mb 58f 58f
1:00 1ft 2s 11 11 mph 1027.2mb 58f 57f
12:00 1.3ft 3s 11 13 mph 1027.5mb 58f 56f
11:00 1.3ft 3s 13 16 mph 1027.8mb 57f 56f
10:00 1ft 3s 13 16 mph 1027.9mb 57f 56f
9:00 1ft 3s 11 13 mph 1027.9mb 57f 56f
8:00 1.3ft 3s 9 11 mph 1027.5mb 56f 55f
7:00 1.6ft 4s 9 11 mph 1027.1mb 56f 55f
6:00 1.3ft 3s 7 7 mph 1026.9mb 56f 56f
5:00 1.6ft 4s 7 7 mph 1026.2mb 56f 55f
4:00 2ft 4s 9 11 mph 1025.9mb 56f 56f
3:00 2.5ft 4s 9 11 mph 1025.8mb 56f 56f
2:00 2ft 4s 13 18 mph 1025.7mb 56f 57f
1:00 2ft 4s 13 16 mph 1025.5mb 56f 58f
12:00 1.6ft 3s 18 20 mph 1024.8mb 56f 59f
mer. 06/21 11:00 1.6ft 4s 18 20 mph 1024.4mb 57f 60f